createdAt,value
2022-10-22T00:02:19.884Z,31.90
2022-10-22T00:04:47.989Z,32.60
2022-10-22T00:07:15.446Z,31.60
2022-10-22T00:09:41.985Z,29.60
2022-10-22T00:12:08.773Z,33.37
2022-10-22T00:14:35.432Z,32.87
2022-10-22T00:17:02.010Z,30.87
2022-10-22T00:19:28.537Z,31.07
2022-10-22T00:21:55.130Z,35.03
2022-10-22T00:24:21.670Z,32.57
2022-10-22T00:26:48.133Z,33.27
2022-10-22T00:29:14.592Z,33.77
2022-10-22T00:31:41.080Z,33.50
2022-10-22T00:34:07.535Z,37.00
2022-10-22T00:36:34.047Z,35.10
2022-10-22T00:39:00.493Z,33.73
2022-10-22T00:41:26.964Z,35.23
2022-10-22T00:44:02.614Z,33.10
2022-10-22T00:46:29.505Z,37.17
2022-10-22T00:48:57.398Z,32.50
2022-10-22T00:51:26.441Z,36.77
2022-10-22T00:53:56.138Z,28.17
2022-10-22T00:56:23.853Z,31.37
2022-10-22T00:58:55.455Z,38.90
2022-10-22T01:01:27.530Z,36.90
2022-10-22T01:03:54.452Z,39.07
2022-10-22T01:06:27.252Z,32.13
2022-10-22T01:09:33.479Z,31.23
2022-10-22T01:12:29.514Z,30.17
2022-10-22T01:15:05.160Z,31.77
2022-10-22T01:17:58.129Z,29.83
2022-10-22T01:20:49.484Z,37.10
2022-10-22T01:23:37.850Z,32.77
2022-10-22T01:26:07.245Z,33.70
2022-10-22T01:28:50.132Z,32.60
2022-10-22T01:31:18.250Z,34.77
2022-10-22T01:33:46.086Z,35.43
2022-10-22T01:36:13.116Z,36.00
2022-10-22T01:38:40.071Z,36.90
2022-10-22T01:41:07.284Z,33.53
2022-10-22T01:43:33.840Z,37.47
2022-10-22T01:46:03.242Z,36.23
2022-10-22T01:48:57.970Z,36.40
2022-10-22T01:52:06.810Z,33.53
2022-10-22T01:54:41.894Z,34.17
2022-10-22T01:57:08.403Z,36.27
2022-10-22T01:59:45.571Z,34.90
2022-10-22T02:02:33.552Z,35.33
2022-10-22T02:05:13.421Z,38.53
2022-10-22T02:07:44.348Z,39.80
2022-10-22T02:10:11.950Z,36.33
2022-10-22T02:12:39.608Z,36.37
2022-10-22T02:15:06.943Z,34.87
2022-10-22T02:17:35.266Z,36.07
2022-10-22T02:20:16.568Z,40.60
2022-10-22T02:22:43.598Z,36.60
2022-10-22T02:25:11.101Z,37.30
2022-10-22T02:27:50.525Z,35.43
2022-10-22T02:30:19.298Z,35.97
2022-10-22T02:32:58.029Z,38.03
2022-10-22T02:35:26.844Z,41.10
2022-10-22T02:37:54.300Z,33.87
2022-10-22T02:40:21.317Z,41.23
2022-10-22T02:42:48.972Z,35.10
2022-10-22T02:45:16.658Z,33.17
2022-10-22T02:47:43.193Z,32.47
2022-10-22T02:50:10.505Z,31.50
2022-10-22T02:52:37.799Z,32.50
2022-10-22T02:55:05.440Z,28.47
2022-10-22T02:57:32.159Z,30.87
2022-10-22T02:59:58.623Z,31.97
2022-10-22T03:02:25.145Z,32.30
2022-10-22T03:04:51.598Z,30.57
2022-10-22T03:07:18.104Z,32.37
2022-10-22T03:09:44.612Z,45.43
2022-10-22T03:12:11.135Z,32.87
2022-10-22T03:14:37.564Z,28.13
2022-10-22T03:17:04.033Z,29.07
2022-10-22T03:19:30.526Z,40.77
2022-10-22T03:22:01.427Z,28.60
2022-10-22T03:24:40.362Z,29.57
2022-10-22T03:27:06.848Z,24.77
2022-10-22T03:29:36.613Z,27.50
2022-10-22T03:32:03.481Z,26.57
2022-10-22T03:34:29.978Z,22.87
2022-10-22T03:36:57.654Z,27.53
2022-10-22T03:39:24.145Z,29.00
2022-10-22T03:41:51.441Z,35.73
2022-10-22T03:44:18.234Z,35.80
2022-10-22T03:46:45.019Z,41.80
2022-10-22T03:49:11.745Z,49.93
2022-10-22T03:51:38.280Z,40.07
2022-10-22T03:54:05.061Z,45.17
2022-10-22T03:56:31.555Z,51.60
2022-10-22T03:58:59.902Z,56.83
2022-10-22T04:01:27.698Z,60.87
2022-10-22T04:03:54.663Z,78.47
2022-10-22T04:06:21.431Z,52.07
2022-10-22T04:08:48.177Z,54.80
2022-10-22T04:11:15.766Z,53.60
2022-10-22T04:13:42.717Z,56.40
2022-10-22T04:16:19.490Z,53.97
2022-10-22T04:18:47.277Z,49.40
2022-10-22T04:21:15.435Z,61.77
2022-10-22T04:23:46.989Z,50.30
2022-10-22T04:26:13.952Z,50.37
2022-10-22T04:28:40.839Z,47.40
2022-10-22T04:31:09.290Z,49.20
2022-10-22T04:33:35.849Z,48.90
2022-10-22T04:36:10.001Z,46.93
2022-10-22T04:38:36.449Z,51.43
2022-10-22T04:41:16.941Z,57.47
2022-10-22T04:43:44.252Z,53.20
2022-10-22T04:46:11.859Z,50.23
2022-10-22T04:48:40.018Z,49.47
2022-10-22T04:51:07.927Z,56.30
2022-10-22T04:53:37.742Z,52.47
2022-10-22T04:56:13.419Z,71.77
2022-10-22T04:58:39.922Z,60.57
2022-10-22T05:01:20.622Z,60.77
2022-10-22T05:03:49.101Z,45.53
2022-10-22T05:06:15.996Z,58.27
2022-10-22T05:08:43.598Z,44.30
2022-10-22T05:11:15.306Z,53.20
2022-10-22T05:13:41.832Z,52.23
2022-10-22T05:16:08.406Z,56.63
2022-10-22T05:18:39.356Z,56.63
2022-10-22T05:21:09.905Z,57.73
2022-10-22T05:23:36.380Z,63.83
2022-10-22T05:26:07.408Z,58.67
2022-10-22T05:28:34.527Z,55.73
2022-10-22T05:31:01.615Z,97.47
2022-10-22T05:33:30.005Z,50.87
2022-10-22T05:35:56.925Z,51.07
2022-10-22T05:38:23.917Z,40.20
2022-10-22T05:41:00.881Z,47.93
2022-10-22T05:43:27.740Z,41.03
2022-10-22T05:45:54.205Z,38.70
2022-10-22T05:48:20.686Z,48.93
2022-10-22T05:50:50.665Z,42.90
2022-10-22T05:53:18.552Z,45.33
2022-10-22T05:55:45.676Z,47.67
2022-10-22T05:58:12.620Z,45.60
2022-10-22T06:00:39.129Z,50.60
2022-10-22T06:03:05.615Z,41.83
2022-10-22T06:05:36.172Z,49.57
2022-10-22T06:08:02.752Z,44.00
2022-10-22T06:10:29.205Z,44.67
2022-10-22T06:12:55.667Z,42.07
2022-10-22T06:15:22.104Z,36.10
2022-10-22T06:17:48.647Z,42.93
2022-10-22T06:20:15.223Z,44.57
2022-10-22T06:22:41.814Z,41.73
2022-10-22T06:25:08.910Z,47.00
2022-10-22T06:27:35.420Z,41.47
2022-10-22T06:30:01.877Z,50.00
2022-10-22T06:32:28.361Z,45.57
2022-10-22T06:34:54.809Z,47.57
2022-10-22T06:37:21.285Z,53.90
2022-10-22T06:39:47.709Z,50.47
2022-10-22T06:42:14.529Z,47.63
2022-10-22T06:44:40.985Z,44.20
2022-10-22T06:47:07.477Z,35.67
2022-10-22T06:49:33.961Z,39.90
2022-10-22T06:52:00.420Z,52.23
2022-10-22T06:54:26.868Z,45.87
2022-10-22T06:56:53.364Z,48.90
2022-10-22T06:59:19.791Z,45.93
2022-10-22T07:01:46.358Z,37.07
2022-10-22T07:04:12.941Z,48.73
2022-10-22T07:06:39.428Z,47.57
2022-10-22T07:09:05.998Z,49.90
2022-10-22T07:11:43.941Z,52.07
2022-10-22T07:14:11.096Z,48.83
2022-10-22T07:16:37.924Z,49.67
2022-10-22T07:19:05.157Z,49.53
2022-10-22T07:21:32.030Z,56.47
2022-10-22T07:23:59.318Z,48.47
2022-10-22T07:26:28.502Z,49.07
2022-10-22T07:28:55.064Z,50.20
2022-10-22T07:31:21.504Z,46.40
2022-10-22T07:33:48.056Z,47.37
2022-10-22T07:36:18.037Z,50.47
2022-10-22T07:38:46.609Z,52.37
2022-10-22T07:41:14.597Z,51.23
2022-10-22T07:43:41.140Z,54.63
2022-10-22T07:46:08.822Z,50.57
2022-10-22T07:48:36.519Z,60.87
2022-10-22T07:51:03.250Z,51.57
2022-10-22T07:53:30.124Z,50.73
2022-10-22T07:55:56.884Z,50.40
2022-10-22T07:58:23.801Z,50.10
2022-10-22T08:00:50.921Z,49.83
2022-10-22T08:03:18.064Z,52.13
2022-10-22T08:05:44.505Z,44.30
2022-10-22T08:08:12.138Z,48.63
2022-10-22T08:10:39.052Z,44.90
2022-10-22T08:13:05.945Z,47.53
2022-10-22T08:15:32.404Z,43.93
2022-10-22T08:17:58.869Z,46.13
2022-10-22T08:20:25.316Z,47.03
2022-10-22T08:22:51.954Z,44.80
2022-10-22T08:25:18.973Z,44.03
2022-10-22T08:27:45.837Z,43.37
2022-10-22T08:30:13.101Z,42.57
2022-10-22T08:32:39.668Z,42.87
2022-10-22T08:35:06.330Z,49.97
2022-10-22T08:37:32.934Z,42.63
2022-10-22T08:39:59.415Z,47.90
2022-10-22T08:42:35.180Z,45.23
2022-10-22T08:45:20.619Z,42.40
2022-10-22T08:48:09.023Z,44.57
2022-10-22T08:50:45.941Z,40.97
2022-10-22T08:53:21.685Z,40.37
2022-10-22T08:55:49.960Z,47.37
2022-10-22T08:58:31.552Z,46.77
2022-10-22T09:01:13.838Z,49.67
2022-10-22T09:03:51.233Z,42.80
2022-10-22T09:06:22.033Z,41.73
2022-10-22T09:08:48.759Z,42.67
2022-10-22T09:11:27.511Z,40.43
2022-10-22T09:13:55.958Z,36.97
2022-10-22T09:16:31.421Z,38.20
2022-10-22T09:19:18.547Z,40.10
2022-10-22T09:22:30.919Z,39.60
2022-10-22T09:25:20.965Z,39.13
2022-10-22T09:27:48.253Z,38.77
2022-10-22T09:30:21.913Z,34.97
2022-10-22T09:32:52.230Z,35.13
2022-10-22T09:35:23.040Z,33.47
2022-10-22T09:37:51.929Z,32.23
2022-10-22T09:40:18.895Z,30.40
2022-10-22T09:42:47.232Z,29.53
2022-10-22T09:45:23.567Z,31.33
2022-10-22T09:48:04.813Z,28.20
2022-10-22T09:50:44.917Z,27.77
2022-10-22T09:53:13.475Z,26.93
2022-10-22T09:55:41.809Z,27.17
2022-10-22T09:58:11.580Z,23.93
2022-10-22T10:00:44.721Z,23.10
2022-10-22T10:03:19.503Z,23.70
2022-10-22T10:05:52.816Z,22.00
2022-10-22T10:08:19.615Z,23.30
2022-10-22T10:10:52.539Z,20.53
2022-10-22T10:13:57.357Z,20.23
2022-10-22T10:16:30.203Z,19.80
2022-10-22T10:18:57.750Z,21.50
2022-10-22T10:21:27.194Z,19.67
2022-10-22T10:24:31.314Z,21.60
2022-10-22T10:27:15.974Z,18.73
2022-10-22T10:30:24.350Z,20.53
2022-10-22T10:33:05.837Z,21.50
2022-10-22T10:35:55.188Z,21.53
2022-10-22T10:38:31.393Z,19.37
2022-10-22T10:41:07.581Z,16.60
2022-10-22T10:43:44.040Z,17.00
2022-10-22T10:46:20.300Z,14.90
2022-10-22T10:48:59.793Z,14.93
2022-10-22T10:51:36.195Z,12.60
2022-10-22T10:54:21.488Z,12.07
2022-10-22T10:56:53.442Z,11.10
2022-10-22T10:59:41.901Z,7.97
2022-10-22T11:02:08.325Z,8.47
2022-10-22T11:04:53.149Z,9.57
2022-10-22T11:07:34.655Z,8.20
2022-10-22T11:10:28.123Z,7.80
2022-10-22T11:12:59.530Z,7.27
2022-10-22T11:15:36.033Z,7.00
2022-10-22T11:18:25.464Z,7.10
2022-10-22T11:21:04.091Z,7.13
2022-10-22T11:23:38.394Z,7.23
2022-10-22T11:26:08.023Z,7.53
2022-10-22T11:28:40.212Z,7.03
2022-10-22T11:31:19.184Z,7.60
2022-10-22T11:34:00.540Z,7.47
2022-10-22T11:36:37.162Z,6.50
2022-10-22T11:39:04.493Z,5.73
2022-10-22T11:41:32.364Z,5.50
2022-10-22T11:44:12.679Z,5.10
2022-10-22T11:46:57.325Z,5.37
2022-10-22T11:49:28.776Z,4.83
2022-10-22T11:52:26.275Z,4.63
2022-10-22T11:54:58.337Z,4.20
2022-10-22T11:57:38.534Z,4.10
2022-10-22T12:00:41.275Z,4.03
2022-10-22T12:03:42.924Z,4.87
2022-10-22T12:06:12.397Z,4.70
2022-10-22T12:08:57.314Z,3.80
2022-10-22T12:11:25.255Z,4.20
2022-10-22T12:14:03.852Z,3.77
2022-10-22T12:16:54.778Z,4.17
2022-10-22T12:19:22.672Z,4.17
2022-10-22T12:21:54.188Z,4.30
2022-10-22T12:24:23.889Z,3.03
2022-10-22T12:26:52.667Z,2.87
2022-10-22T12:29:26.841Z,3.37
2022-10-22T12:31:55.100Z,2.70
2022-10-22T12:34:24.081Z,2.90
2022-10-22T12:36:52.451Z,3.50
2022-10-22T12:39:26.172Z,3.30
2022-10-22T12:41:54.010Z,3.80
2022-10-22T12:44:20.623Z,3.60
2022-10-22T12:46:52.953Z,3.63
2022-10-22T12:49:35.493Z,3.17
2022-10-22T12:52:10.821Z,4.03
2022-10-22T12:54:40.061Z,4.43
2022-10-22T12:57:10.210Z,5.57
2022-10-22T12:59:38.297Z,6.53
2022-10-22T13:02:16.243Z,6.30
2022-10-22T13:04:42.795Z,5.87
2022-10-22T13:07:12.271Z,7.13
2022-10-22T13:09:40.181Z,5.20
2022-10-22T13:12:08.586Z,5.47
2022-10-22T13:14:38.178Z,4.60
2022-10-22T13:17:08.065Z,4.77
2022-10-22T13:19:54.177Z,4.70
2022-10-22T13:22:32.809Z,5.23
2022-10-22T13:25:14.674Z,5.67
2022-10-22T13:27:49.038Z,5.03
2022-10-22T13:30:25.092Z,5.00
2022-10-22T13:33:00.128Z,5.40
2022-10-22T13:35:29.747Z,5.10
2022-10-22T13:37:56.196Z,5.73
2022-10-22T13:40:22.896Z,5.30
2022-10-22T13:42:49.464Z,5.20
2022-10-22T13:45:16.630Z,5.40
2022-10-22T13:47:48.371Z,5.50
2022-10-22T13:50:17.620Z,5.70
2022-10-22T13:52:48.028Z,6.23
2022-10-22T13:55:25.500Z,6.07
2022-10-22T13:57:53.614Z,7.47
2022-10-22T14:00:21.693Z,6.57
2022-10-22T14:02:50.273Z,7.87
2022-10-22T14:05:17.847Z,6.80
2022-10-22T14:07:44.846Z,7.30
2022-10-22T14:10:22.094Z,8.97
2022-10-22T14:12:52.445Z,8.53
2022-10-22T14:15:24.019Z,8.07
2022-10-22T14:17:54.890Z,8.70
2022-10-22T14:20:23.386Z,8.33
2022-10-22T14:22:51.099Z,8.00
2022-10-22T14:25:20.279Z,8.67
2022-10-22T14:27:47.276Z,9.13
2022-10-22T14:30:15.865Z,9.67
2022-10-22T14:32:43.100Z,8.80
2022-10-22T14:35:14.466Z,8.80
2022-10-22T14:37:40.963Z,9.53
2022-10-22T14:40:08.979Z,7.57
2022-10-22T14:42:41.735Z,6.90
2022-10-22T14:45:21.839Z,7.17
2022-10-22T14:47:49.215Z,6.37
2022-10-22T14:50:16.320Z,6.20
2022-10-22T14:52:43.750Z,5.63
2022-10-22T14:55:12.235Z,5.90
2022-10-22T14:57:39.681Z,5.87
2022-10-22T15:00:09.070Z,5.60
2022-10-22T15:02:35.543Z,6.80
2022-10-22T15:05:01.987Z,6.67
2022-10-22T15:07:28.508Z,5.63
2022-10-22T15:09:54.971Z,4.93
2022-10-22T15:12:21.476Z,4.63
2022-10-22T15:14:48.328Z,4.90
2022-10-22T15:17:15.837Z,4.50
2022-10-22T15:19:43.621Z,4.37
2022-10-22T15:22:13.172Z,4.07
2022-10-22T15:24:40.418Z,4.20
2022-10-22T15:27:06.950Z,4.00
2022-10-22T15:29:33.552Z,4.07
2022-10-22T15:32:00.660Z,4.03
2022-10-22T15:34:29.385Z,4.43
2022-10-22T15:36:57.903Z,4.07
2022-10-22T15:39:24.692Z,4.20
2022-10-22T15:41:51.745Z,4.80
2022-10-22T15:44:20.509Z,4.27
2022-10-22T15:46:47.029Z,4.77
2022-10-22T15:49:14.753Z,5.80
2022-10-22T15:51:41.236Z,5.20
2022-10-22T15:54:13.176Z,4.60
2022-10-22T15:56:39.803Z,4.90
2022-10-22T15:59:06.565Z,4.80
2022-10-22T16:01:34.205Z,5.10
2022-10-22T16:04:02.683Z,5.33
2022-10-22T16:06:34.633Z,5.90
2022-10-22T16:09:04.049Z,5.70
2022-10-22T16:11:30.896Z,5.17
2022-10-22T16:13:58.747Z,4.70
2022-10-22T16:16:27.282Z,5.20
2022-10-22T16:18:53.901Z,5.53
2022-10-22T16:21:21.608Z,5.30
2022-10-22T16:23:48.810Z,4.93
2022-10-22T16:26:16.423Z,5.23
2022-10-22T16:28:43.629Z,5.00
2022-10-22T16:31:12.428Z,5.50
2022-10-22T16:33:43.083Z,5.73
2022-10-22T16:36:14.456Z,5.30
2022-10-22T16:38:41.072Z,5.00
2022-10-22T16:41:11.801Z,5.03
2022-10-22T16:43:38.870Z,5.80
2022-10-22T16:46:06.088Z,5.43
2022-10-22T16:48:33.227Z,5.23
2022-10-22T16:51:00.791Z,6.03
2022-10-22T16:53:27.265Z,6.03
2022-10-22T16:55:53.752Z,5.47
2022-10-22T16:58:20.184Z,5.57
2022-10-22T17:00:46.670Z,4.47
2022-10-22T17:03:13.318Z,6.00
2022-10-22T17:05:39.802Z,5.17
2022-10-22T17:08:06.287Z,5.53
2022-10-22T17:10:32.772Z,5.30
2022-10-22T17:12:59.257Z,5.53
2022-10-22T17:15:25.848Z,6.33
2022-10-22T17:17:53.753Z,5.47
2022-10-22T17:20:20.232Z,5.10
2022-10-22T17:22:47.041Z,4.70
2022-10-22T17:25:19.950Z,4.50
2022-10-22T17:27:46.386Z,4.47
2022-10-22T17:30:15.847Z,4.70
2022-10-22T17:32:44.110Z,4.03
2022-10-22T17:35:12.372Z,4.20
2022-10-22T17:37:39.241Z,3.33
2022-10-22T17:40:06.617Z,2.67
2022-10-22T17:42:33.145Z,2.70
2022-10-22T17:44:59.698Z,2.67
2022-10-22T17:47:26.163Z,3.10
2022-10-22T17:49:53.787Z,2.83
2022-10-22T17:52:20.337Z,2.60
2022-10-22T17:54:48.462Z,2.77
2022-10-22T17:57:14.899Z,3.03
2022-10-22T17:59:41.367Z,3.20
2022-10-22T18:02:10.331Z,3.00
2022-10-22T18:04:36.793Z,3.40
2022-10-22T18:07:03.248Z,4.07
2022-10-22T18:09:29.728Z,4.10
2022-10-22T18:11:56.200Z,5.30
2022-10-22T18:14:23.354Z,4.97
2022-10-22T18:16:50.592Z,6.30
2022-10-22T18:19:19.560Z,6.50
2022-10-22T18:21:46.599Z,7.40
2022-10-22T18:24:15.278Z,7.33
2022-10-22T18:26:42.329Z,8.23
2022-10-22T18:29:10.578Z,8.10
2022-10-22T18:31:37.181Z,8.67
2022-10-22T18:34:03.686Z,9.00
2022-10-22T18:36:30.158Z,8.53
2022-10-22T18:38:58.961Z,9.73
2022-10-22T18:41:26.782Z,9.10
2022-10-22T18:43:58.529Z,8.30
2022-10-22T18:46:25.701Z,8.80
2022-10-22T18:48:53.526Z,7.27
2022-10-22T18:51:20.388Z,7.37
2022-10-22T18:53:59.197Z,8.27
2022-10-22T18:56:36.564Z,7.17
2022-10-22T18:59:03.037Z,7.83
2022-10-22T19:01:29.698Z,6.63
2022-10-22T19:03:56.668Z,6.90
2022-10-22T19:06:33.312Z,6.70
2022-10-22T19:09:04.291Z,6.13
2022-10-22T19:11:31.134Z,7.40
2022-10-22T19:13:58.083Z,7.27
2022-10-22T19:16:24.631Z,8.00
2022-10-22T19:18:52.362Z,8.53
2022-10-22T19:21:20.036Z,7.83
2022-10-22T19:23:46.601Z,9.60
2022-10-22T19:26:16.302Z,10.67
2022-10-22T19:28:43.800Z,11.83
2022-10-22T19:31:12.742Z,11.17
2022-10-22T19:33:40.080Z,10.97
2022-10-22T19:36:08.722Z,12.73
2022-10-22T19:38:37.815Z,12.10
2022-10-22T19:41:09.373Z,12.23
2022-10-22T19:43:36.033Z,12.50
2022-10-22T19:46:04.125Z,12.97
2022-10-22T19:48:30.653Z,12.43
2022-10-22T19:51:17.881Z,12.53
2022-10-22T19:53:44.859Z,13.40
2022-10-22T19:56:12.149Z,12.83
2022-10-22T19:58:39.300Z,14.20
2022-10-22T20:01:07.188Z,13.23
2022-10-22T20:03:36.225Z,14.17
2022-10-22T20:06:05.319Z,13.67
2022-10-22T20:08:34.458Z,13.80
2022-10-22T20:11:01.028Z,13.33
2022-10-22T20:13:27.641Z,14.40
2022-10-22T20:15:54.166Z,14.10
2022-10-22T20:18:22.417Z,14.17
2022-10-22T20:20:49.363Z,13.97
2022-10-22T20:23:16.021Z,14.20
2022-10-22T20:25:44.258Z,15.67
2022-10-22T20:28:11.471Z,14.17
2022-10-22T20:30:42.708Z,15.43
2022-10-22T20:33:09.348Z,15.53
2022-10-22T20:35:37.434Z,14.53
2022-10-22T20:38:05.269Z,16.63
2022-10-22T20:40:32.710Z,17.83
2022-10-22T20:43:00.728Z,17.27
2022-10-22T20:45:28.116Z,13.03
2022-10-22T20:48:02.146Z,10.00
2022-10-22T20:50:31.985Z,8.97
2022-10-22T20:52:59.048Z,10.57
2022-10-22T20:55:25.863Z,10.57
2022-10-22T20:57:52.498Z,11.10
2022-10-22T21:00:22.200Z,11.97
2022-10-22T21:02:50.358Z,13.63
2022-10-22T21:05:17.277Z,13.20
2022-10-22T21:07:44.163Z,14.90
2022-10-22T21:10:11.573Z,13.70
2022-10-22T21:12:42.036Z,13.70
2022-10-22T21:15:12.509Z,14.13
2022-10-22T21:17:40.863Z,14.97
2022-10-22T21:20:08.278Z,13.27
2022-10-22T21:22:35.464Z,13.53
2022-10-22T21:25:02.184Z,12.70
2022-10-22T21:27:28.686Z,12.80
2022-10-22T21:29:55.143Z,13.27
2022-10-22T21:32:21.590Z,12.97
2022-10-22T21:34:48.053Z,14.97
2022-10-22T21:37:14.504Z,12.73
2022-10-22T21:39:42.148Z,12.63
2022-10-22T21:42:09.022Z,12.57
2022-10-22T21:44:35.490Z,12.13
2022-10-22T21:47:02.768Z,14.53
2022-10-22T21:49:29.207Z,13.30
2022-10-22T21:51:55.750Z,11.27
2022-10-22T21:54:22.207Z,11.27
2022-10-22T21:56:49.105Z,12.10
2022-10-22T21:59:15.887Z,11.53
2022-10-22T22:01:42.472Z,13.63
2022-10-22T22:04:09.024Z,11.50
2022-10-22T22:06:35.554Z,12.10
2022-10-22T22:09:03.458Z,11.33
2022-10-22T22:11:30.376Z,11.20
2022-10-22T22:13:57.810Z,11.10
2022-10-22T22:16:28.605Z,11.30
2022-10-22T22:18:57.196Z,10.70
2022-10-22T22:21:23.781Z,13.03
2022-10-22T22:23:51.063Z,10.20
2022-10-22T22:26:25.224Z,12.17
2022-10-22T22:28:55.027Z,11.57
2022-10-22T22:31:25.953Z,12.10
2022-10-22T22:34:01.335Z,13.00
2022-10-22T22:36:27.920Z,12.40
2022-10-22T22:38:56.293Z,12.33
2022-10-22T22:41:22.933Z,11.33
2022-10-22T22:43:49.528Z,12.43
2022-10-22T22:46:17.291Z,12.53
2022-10-22T22:48:43.834Z,11.17
2022-10-22T22:51:10.495Z,13.77
2022-10-22T22:53:36.976Z,13.10
2022-10-22T22:56:10.413Z,12.17
2022-10-22T22:58:38.347Z,12.17
2022-10-22T23:01:15.506Z,13.00
2022-10-22T23:03:42.933Z,12.73
2022-10-22T23:06:09.700Z,13.57
2022-10-22T23:08:37.515Z,13.90
2022-10-22T23:11:10.108Z,13.20
2022-10-22T23:13:37.151Z,12.60
2022-10-22T23:16:08.432Z,13.60
2022-10-22T23:18:35.273Z,12.93
2022-10-22T23:21:12.968Z,13.93
2022-10-22T23:23:42.844Z,13.80
2022-10-22T23:26:12.099Z,13.87
2022-10-22T23:28:38.592Z,13.73
2022-10-22T23:31:05.270Z,13.93
2022-10-22T23:33:31.750Z,15.60
2022-10-22T23:36:01.317Z,13.90
2022-10-22T23:38:28.215Z,13.23
2022-10-22T23:40:56.570Z,13.60
2022-10-22T23:43:24.304Z,12.87
2022-10-22T23:45:50.989Z,13.80
2022-10-22T23:48:17.874Z,13.40
2022-10-22T23:50:44.532Z,13.33
2022-10-22T23:53:11.172Z,13.63
2022-10-22T23:55:41.482Z,12.57
2022-10-22T23:58:08.578Z,14.67
